createdAt,value
2023-04-12T00:01:46.982Z,73.82
2023-04-12T00:05:11.380Z,73.93
2023-04-12T00:08:35.551Z,74.21
2023-04-12T00:12:01.844Z,74.59
2023-04-12T00:15:23.476Z,76.05
2023-04-12T00:18:45.666Z,75.69
2023-04-12T00:22:11.687Z,75.72
2023-04-12T00:25:38.848Z,75.96
2023-04-12T00:29:02.771Z,75.16
2023-04-12T00:32:24.509Z,74.27
2023-04-12T00:35:48.292Z,75.15
2023-04-12T00:39:10.045Z,74.86
2023-04-12T00:42:35.109Z,74.80
2023-04-12T00:46:00.326Z,74.55
2023-04-12T00:49:21.932Z,75.80
2023-04-12T00:52:43.957Z,75.29
2023-04-12T00:56:08.269Z,75.40
2023-04-12T00:59:32.355Z,74.48
2023-04-12T01:02:54.332Z,75.60
2023-04-12T01:06:29.939Z,75.62
2023-04-12T01:10:13.392Z,74.76
2023-04-12T01:14:19.844Z,74.97
2023-04-12T01:17:59.641Z,75.06
2023-04-12T01:21:50.608Z,74.91
2023-04-12T01:25:29.339Z,74.96
2023-04-12T01:28:54.580Z,74.35
2023-04-12T01:32:16.875Z,73.77
2023-04-12T01:35:39.593Z,73.89
2023-04-12T01:39:02.459Z,75.13
2023-04-12T01:42:24.064Z,74.66
2023-04-12T01:45:46.246Z,75.47
2023-04-12T01:49:07.960Z,74.96
2023-04-12T01:52:34.632Z,75.49
2023-04-12T01:55:59.839Z,75.17
2023-04-12T01:59:28.937Z,74.90
2023-04-12T02:02:51.204Z,75.77
2023-04-12T02:06:16.277Z,75.21
2023-04-12T02:09:38.919Z,75.27
2023-04-12T02:13:01.751Z,75.51
2023-04-12T02:16:24.164Z,74.10
2023-04-12T02:19:46.174Z,73.87
2023-04-12T02:23:07.811Z,73.73
2023-04-12T02:26:29.410Z,74.06
2023-04-12T02:29:54.292Z,74.53
2023-04-12T02:33:21.785Z,74.70
2023-04-12T02:36:49.795Z,75.20
2023-04-12T02:40:12.546Z,75.35
2023-04-12T02:43:34.131Z,75.45
2023-04-12T02:46:58.097Z,74.69
2023-04-12T02:50:19.848Z,74.72
2023-04-12T02:53:41.702Z,74.01
2023-04-12T02:57:06.726Z,74.21
2023-04-12T03:00:28.358Z,73.48
2023-04-12T03:03:52.243Z,73.84
2023-04-12T03:07:14.210Z,74.24
2023-04-12T03:10:38.079Z,73.92
2023-04-12T03:13:59.651Z,74.13
2023-04-12T03:17:26.300Z,73.72
2023-04-12T03:20:50.195Z,75.17
2023-04-12T03:24:14.185Z,75.57
2023-04-12T03:27:35.754Z,75.86
2023-04-12T03:30:57.666Z,74.75
2023-04-12T03:34:19.330Z,74.83
2023-04-12T03:37:42.712Z,74.71
2023-04-12T03:41:07.420Z,74.80
2023-04-12T03:44:32.757Z,74.09
2023-04-12T03:47:56.640Z,74.24
2023-04-12T03:51:18.317Z,73.99
2023-04-12T03:54:43.544Z,74.31
2023-04-12T03:58:05.457Z,74.20
2023-04-12T04:01:27.486Z,74.42
2023-04-12T04:04:51.731Z,74.73
2023-04-12T04:08:16.034Z,74.74
2023-04-12T04:11:40.346Z,75.38
2023-04-12T04:15:01.937Z,74.81
2023-04-12T04:18:23.519Z,74.85
2023-04-12T04:21:47.921Z,74.87
2023-04-12T04:25:09.815Z,73.81
2023-04-12T04:28:32.093Z,74.54
2023-04-12T04:31:55.350Z,74.85
2023-04-12T04:35:17.871Z,74.87
2023-04-12T04:38:42.089Z,74.92
2023-04-12T04:42:06.798Z,74.25
2023-04-12T04:45:28.752Z,74.24
2023-04-12T04:48:55.149Z,73.78
2023-04-12T04:52:17.182Z,72.92
2023-04-12T04:55:39.334Z,72.52
2023-04-12T04:59:02.663Z,72.31
2023-04-12T05:02:29.842Z,71.95
2023-04-12T05:05:51.901Z,72.61
2023-04-12T05:09:13.454Z,72.27
2023-04-12T05:12:35.172Z,70.98
2023-04-12T05:15:56.757Z,69.97
2023-04-12T05:19:18.387Z,69.86
2023-04-12T05:22:40.038Z,69.39
2023-04-12T05:26:01.716Z,67.26
2023-04-12T05:29:25.639Z,67.59
2023-04-12T05:32:47.646Z,66.05
2023-04-12T05:36:12.280Z,65.56
2023-04-12T05:39:36.109Z,65.74
2023-04-12T05:42:57.917Z,64.72
2023-04-12T05:46:19.576Z,62.89
2023-04-12T05:49:41.288Z,61.70
2023-04-12T05:53:06.074Z,60.72
2023-04-12T05:56:29.979Z,60.76
2023-04-12T05:59:54.879Z,59.81
2023-04-12T06:03:16.602Z,59.95
2023-04-12T06:06:38.382Z,63.54
2023-04-12T06:10:07.054Z,62.82
2023-04-12T06:13:28.778Z,62.23
2023-04-12T06:16:50.440Z,60.15
2023-04-12T06:20:14.801Z,60.33
2023-04-12T06:23:38.729Z,58.62
2023-04-12T06:27:02.861Z,62.93
2023-04-12T06:30:24.569Z,62.74
2023-04-12T06:33:46.856Z,62.65
2023-04-12T06:37:08.435Z,62.10
2023-04-12T06:40:32.577Z,60.88
2023-04-12T06:43:54.149Z,62.21
2023-04-12T06:47:16.114Z,61.34
2023-04-12T06:50:37.716Z,60.11
2023-04-12T06:53:59.578Z,58.72
2023-04-12T06:57:21.295Z,60.23
2023-04-12T07:00:42.965Z,60.70
2023-04-12T07:04:09.769Z,59.42
2023-04-12T07:07:32.226Z,57.21
2023-04-12T07:11:03.637Z,57.78
2023-04-12T07:14:30.745Z,59.14
2023-04-12T07:17:57.092Z,57.13
2023-04-12T07:21:23.582Z,59.75
2023-04-12T07:24:45.267Z,59.79
2023-04-12T07:28:09.073Z,59.37
2023-04-12T07:31:30.928Z,59.51
2023-04-12T07:34:55.664Z,58.81
2023-04-12T07:38:17.317Z,58.97
2023-04-12T07:41:43.460Z,58.47
2023-04-12T07:45:06.192Z,56.44
2023-04-12T07:48:27.828Z,54.66
2023-04-12T07:51:49.478Z,57.50
2023-04-12T07:55:11.338Z,55.34
2023-04-12T07:58:33.868Z,55.65
2023-04-12T08:02:00.236Z,52.59
2023-04-12T08:05:21.968Z,51.74
2023-04-12T08:08:46.130Z,53.95
2023-04-12T08:12:10.422Z,54.01
2023-04-12T08:15:34.333Z,52.84
2023-04-12T08:18:56.800Z,50.32
2023-04-12T08:22:18.435Z,51.10
2023-04-12T08:25:44.734Z,52.08
2023-04-12T08:29:06.435Z,51.19
2023-04-12T08:32:28.120Z,51.68
2023-04-12T08:35:50.543Z,52.48
2023-04-12T08:39:14.626Z,52.77
2023-04-12T08:42:37.533Z,50.87
2023-04-12T08:46:02.460Z,50.56
2023-04-12T08:49:26.922Z,51.56
2023-04-12T08:52:50.621Z,48.73
2023-04-12T08:56:19.113Z,49.70
2023-04-12T08:59:43.702Z,49.25
2023-04-12T09:03:07.900Z,50.45
2023-04-12T09:06:29.788Z,48.30
2023-04-12T09:09:51.529Z,49.86
2023-04-12T09:13:13.150Z,47.79
2023-04-12T09:16:39.867Z,46.08
2023-04-12T09:20:01.560Z,45.33
2023-04-12T09:23:29.328Z,45.68
2023-04-12T09:27:20.931Z,45.77
2023-04-12T09:30:51.461Z,44.23
2023-04-12T09:34:13.085Z,45.68
2023-04-12T09:37:35.115Z,43.93
2023-04-12T09:41:20.476Z,45.02
2023-04-12T09:44:46.635Z,45.10
2023-04-12T09:48:21.845Z,45.55
2023-04-12T09:51:43.883Z,45.79
2023-04-12T09:55:09.813Z,44.65
2023-04-12T09:58:36.015Z,44.28
2023-04-12T10:01:58.962Z,42.71
2023-04-12T10:05:23.321Z,42.23
2023-04-12T10:08:48.899Z,41.42
2023-04-12T10:12:13.155Z,41.45
2023-04-12T10:15:35.733Z,39.37
2023-04-12T10:18:59.568Z,42.79
2023-04-12T10:22:21.527Z,41.57
2023-04-12T10:25:49.514Z,42.45
2023-04-12T10:29:38.630Z,43.42
2023-04-12T10:33:03.260Z,42.15
2023-04-12T10:37:04.417Z,44.12
2023-04-12T10:40:30.121Z,43.18
2023-04-12T10:43:52.178Z,43.24
2023-04-12T10:47:14.049Z,40.87
2023-04-12T10:50:38.909Z,40.45
2023-04-12T10:54:12.363Z,37.15
2023-04-12T10:57:47.859Z,35.44
2023-04-12T11:01:12.458Z,35.77
2023-04-12T11:04:35.697Z,37.36
2023-04-12T11:08:00.594Z,36.28
2023-04-12T11:11:27.551Z,35.61
2023-04-12T11:14:52.406Z,38.19
2023-04-12T11:18:17.688Z,37.73
2023-04-12T11:21:40.335Z,39.08
2023-04-12T11:25:03.287Z,35.30
2023-04-12T11:28:29.047Z,37.47
2023-04-12T11:31:52.008Z,37.17
2023-04-12T11:35:16.237Z,36.33
2023-04-12T11:38:38.400Z,37.59
2023-04-12T11:42:02.379Z,36.25
2023-04-12T11:45:24.133Z,36.87
2023-04-12T11:48:47.070Z,36.32
2023-04-12T11:52:08.790Z,36.75
2023-04-12T11:55:32.612Z,36.70
2023-04-12T11:58:54.447Z,36.26
2023-04-12T12:02:23.799Z,37.33
2023-04-12T12:05:49.351Z,37.34
2023-04-12T12:09:13.666Z,37.16
2023-04-12T12:12:37.773Z,38.89
2023-04-12T12:15:59.420Z,36.52
2023-04-12T12:19:37.309Z,36.01
2023-04-12T12:22:58.886Z,35.15
2023-04-12T12:26:21.222Z,34.22
2023-04-12T12:29:42.832Z,35.45
2023-04-12T12:33:04.549Z,35.83
2023-04-12T12:36:44.304Z,36.38
2023-04-12T12:40:14.259Z,36.31
2023-04-12T12:43:36.332Z,36.74
2023-04-12T12:47:10.156Z,37.93
2023-04-12T12:50:39.244Z,38.89
2023-04-12T12:54:01.234Z,38.70
2023-04-12T12:57:25.427Z,39.23
2023-04-12T13:00:47.030Z,39.22
2023-04-12T13:04:08.699Z,39.27
2023-04-12T13:07:30.508Z,38.11
2023-04-12T13:10:52.713Z,39.32
2023-04-12T13:14:14.348Z,37.73
2023-04-12T13:17:38.288Z,39.12
2023-04-12T13:21:04.748Z,40.08
2023-04-12T13:24:26.399Z,37.97
2023-04-12T13:27:51.644Z,38.03
2023-04-12T13:31:18.058Z,38.07
2023-04-12T13:34:39.921Z,37.44
2023-04-12T13:38:01.491Z,37.73
2023-04-12T13:41:23.415Z,37.10
2023-04-12T13:44:45.090Z,36.60
2023-04-12T13:48:08.992Z,37.18
2023-04-12T13:51:33.262Z,36.97
2023-04-12T13:54:59.678Z,36.95
2023-04-12T13:58:26.119Z,36.04
2023-04-12T14:01:50.192Z,35.97
2023-04-12T14:05:12.174Z,36.09
2023-04-12T14:08:34.234Z,35.94
2023-04-12T14:11:59.334Z,35.87
2023-04-12T14:15:23.361Z,36.11
2023-04-12T14:18:47.435Z,34.49
2023-04-12T14:22:11.244Z,33.95
2023-04-12T14:25:35.073Z,33.19
2023-04-12T14:28:56.851Z,34.68
2023-04-12T14:32:21.162Z,35.46
2023-04-12T14:35:43.072Z,33.39
2023-04-12T14:39:06.968Z,33.72
2023-04-12T14:42:32.754Z,34.38
2023-04-12T14:45:57.307Z,33.71
2023-04-12T14:49:23.452Z,33.86
2023-04-12T14:52:45.086Z,34.41
2023-04-12T14:56:23.896Z,34.08
2023-04-12T14:59:51.042Z,34.44
2023-04-12T15:03:15.602Z,33.86
2023-04-12T15:06:42.272Z,34.32
2023-04-12T15:10:06.818Z,33.14
2023-04-12T15:13:33.022Z,32.10
2023-04-12T15:16:59.521Z,33.79
2023-04-12T15:20:23.659Z,33.28
2023-04-12T15:23:45.487Z,31.37
2023-04-12T15:27:07.658Z,32.67
2023-04-12T15:30:31.883Z,31.75
2023-04-12T15:33:55.818Z,31.44
2023-04-12T15:37:19.973Z,33.11
2023-04-12T15:40:42.152Z,31.28
2023-04-12T15:44:08.113Z,31.59
2023-04-12T15:47:30.065Z,32.70
2023-04-12T15:50:53.612Z,31.62
2023-04-12T15:54:16.182Z,31.47
2023-04-12T15:57:40.269Z,33.53
2023-04-12T16:01:05.159Z,37.49
2023-04-12T16:04:29.397Z,33.05
2023-04-12T16:07:51.576Z,35.25
2023-04-12T16:11:13.443Z,41.88
2023-04-12T16:14:37.694Z,36.00
2023-04-12T16:18:02.076Z,42.41
2023-04-12T16:21:26.608Z,39.07
2023-04-12T16:24:54.896Z,29.25
2023-04-12T16:28:20.641Z,31.22
2023-04-12T16:31:42.350Z,33.11
2023-04-12T16:35:04.657Z,34.03
2023-04-12T16:38:26.438Z,33.39
2023-04-12T16:41:52.680Z,34.01
2023-04-12T16:45:15.057Z,34.72
2023-04-12T16:48:39.370Z,34.11
2023-04-12T16:52:03.683Z,34.54
2023-04-12T16:55:27.485Z,35.15
2023-04-12T16:58:49.149Z,35.55
2023-04-12T17:02:11.694Z,35.48
2023-04-12T17:05:33.873Z,36.18
2023-04-12T17:08:55.556Z,35.08
2023-04-12T17:12:17.150Z,35.63
2023-04-12T17:15:38.850Z,35.96
2023-04-12T17:19:01.012Z,36.45
2023-04-12T17:22:23.324Z,37.21
2023-04-12T17:25:45.076Z,38.69
2023-04-12T17:29:07.024Z,38.84
2023-04-12T17:32:28.791Z,37.92
2023-04-12T17:35:50.711Z,38.76
2023-04-12T17:39:14.580Z,39.41
2023-04-12T17:42:37.544Z,39.99
2023-04-12T17:46:03.474Z,38.92
2023-04-12T17:49:25.713Z,39.71
2023-04-12T17:52:49.442Z,40.92
2023-04-12T17:56:13.351Z,41.11
2023-04-12T17:59:37.957Z,41.83
2023-04-12T18:03:04.761Z,41.90
2023-04-12T18:06:29.227Z,43.15
2023-04-12T18:09:51.449Z,43.11
2023-04-12T18:13:13.229Z,43.69
2023-04-12T18:16:37.099Z,44.26
2023-04-12T18:19:59.520Z,44.96
2023-04-12T18:23:27.638Z,43.93
2023-04-12T18:26:49.519Z,43.80
2023-04-12T18:30:15.162Z,46.01
2023-04-12T18:33:36.786Z,47.67
2023-04-12T18:36:59.140Z,48.14
2023-04-12T18:40:21.618Z,47.64
2023-04-12T18:43:45.928Z,48.25
2023-04-12T18:47:10.786Z,48.03
2023-04-12T18:50:34.950Z,54.34
2023-04-12T18:53:56.939Z,54.27
2023-04-12T18:57:21.983Z,52.23
2023-04-12T19:00:43.630Z,51.37
2023-04-12T19:04:05.866Z,52.44
2023-04-12T19:07:27.936Z,46.74
2023-04-12T19:10:51.770Z,47.50
2023-04-12T19:14:16.167Z,48.23
2023-04-12T19:17:39.054Z,48.68
2023-04-12T19:21:02.205Z,49.98
2023-04-12T19:24:23.920Z,51.34
2023-04-12T19:27:45.532Z,50.89
2023-04-12T19:31:10.697Z,50.61
2023-04-12T19:34:34.045Z,51.06
2023-04-12T19:37:58.315Z,51.53
2023-04-12T19:41:23.665Z,51.48
2023-04-12T19:44:45.279Z,51.71
2023-04-12T19:48:07.040Z,51.95
2023-04-12T19:51:29.044Z,52.52
2023-04-12T19:54:56.594Z,52.98
2023-04-12T19:58:18.189Z,52.55
2023-04-12T20:01:48.643Z,53.32
2023-04-12T20:05:10.681Z,53.05
2023-04-12T20:08:33.129Z,54.08
2023-04-12T20:11:58.431Z,54.98
2023-04-12T20:15:22.472Z,53.22
2023-04-12T20:18:46.901Z,55.06
2023-04-12T20:22:08.450Z,54.10
2023-04-12T20:25:37.786Z,53.54
2023-04-12T20:29:09.303Z,53.18
2023-04-12T20:32:33.554Z,55.30
2023-04-12T20:35:55.182Z,55.92
2023-04-12T20:39:21.435Z,55.19
2023-04-12T20:42:47.884Z,55.24
2023-04-12T20:46:15.384Z,55.36
2023-04-12T20:49:37.031Z,55.86
2023-04-12T20:53:01.533Z,56.17
2023-04-12T20:56:28.760Z,55.88
2023-04-12T20:59:55.662Z,56.17
2023-04-12T21:03:19.723Z,55.72
2023-04-12T21:06:45.180Z,56.50
2023-04-12T21:10:08.800Z,54.25
2023-04-12T21:13:35.594Z,55.61
2023-04-12T21:17:04.949Z,57.08
2023-04-12T21:20:27.074Z,56.19
2023-04-12T21:23:51.749Z,54.18
2023-04-12T21:27:14.545Z,55.02
2023-04-12T21:30:36.267Z,57.73
2023-04-12T21:34:01.958Z,57.58
2023-04-12T21:37:23.733Z,57.13
2023-04-12T21:40:48.016Z,58.40
2023-04-12T21:44:12.545Z,58.34
2023-04-12T21:47:36.793Z,58.16
2023-04-12T21:51:00.834Z,58.27
2023-04-12T21:54:22.882Z,59.17
2023-04-12T21:57:46.895Z,58.49
2023-04-12T22:01:11.009Z,59.82
2023-04-12T22:04:34.890Z,59.81
2023-04-12T22:07:56.517Z,59.30
2023-04-12T22:11:22.806Z,59.74
2023-04-12T22:14:47.452Z,59.69
2023-04-12T22:18:13.130Z,58.24
2023-04-12T22:21:40.103Z,58.12
2023-04-12T22:25:07.024Z,58.14
2023-04-12T22:28:29.217Z,60.04
2023-04-12T22:31:53.273Z,60.16
2023-04-12T22:35:17.653Z,61.18
2023-04-12T22:38:39.278Z,62.22
2023-04-12T22:42:04.157Z,60.97
2023-04-12T22:45:28.639Z,61.37
2023-04-12T22:48:50.234Z,59.67
2023-04-12T22:52:13.610Z,59.72
2023-04-12T22:55:39.420Z,59.30
2023-04-12T22:59:03.777Z,59.54
2023-04-12T23:02:28.427Z,58.41
2023-04-12T23:05:50.220Z,58.15
2023-04-12T23:09:17.075Z,56.67
2023-04-12T23:12:41.080Z,57.19
2023-04-12T23:16:05.715Z,57.80
2023-04-12T23:19:27.321Z,58.84
2023-04-12T23:22:57.896Z,58.66
2023-04-12T23:26:20.062Z,59.21
2023-04-12T23:29:44.037Z,58.38
2023-04-12T23:33:09.301Z,58.73
2023-04-12T23:36:33.858Z,59.15
2023-04-12T23:40:05.286Z,60.63
2023-04-12T23:43:26.977Z,60.33
2023-04-12T23:46:51.318Z,60.70
2023-04-12T23:50:15.128Z,60.10
2023-04-12T23:53:39.044Z,61.56
2023-04-12T23:57:01.592Z,60.97
